x

Isle Of Shoals, Nh (iosn3) Weather Station

11:00pm - Sun 21st Sep 2014 All times are EDT. -4 hours from GMT.

  • Wind
    5mph
  • 空気 Temp 62°f
  • Sea Pressure 1000.6mb
  • Isle Of Shoals, Nh
  • Isle Of Shoals, Nh

More Historic Weather Station data

Upgrade to MSW Pro to gain access to the past 30 days of data for over 8000 Wavebouys and Weather Stations around the globe.

Join Pro

Comparision Forecast

View Surf forecast
   
Sun 09/21 11:00pm 5
mph
1000.6mb 62f
10:00pm 1
mph
1001.5mb 63f
9:00pm 8 9 mph 1002mb 63f
8:00pm 18 20 mph 1002.4mb 64f
7:00pm 16
mph
1003mb 64f
6:00pm 20 22 mph 1003.8mb 63f
5:00pm 21 23 mph 1004.9mb 63f
4:00pm 22
mph
1005.9mb 63f
3:00pm 17 18 mph 1007mb 64f
2:00pm 21
mph
1008.1mb 65f
1:00pm 24 25 mph 1009mb 65f
12:00pm 22 23 mph 1010.9mb 64f
11:00am 20 22 mph 1012.1mb 64f
10:00am 7 8 mph 1012.9mb 63f
9:00am 9 10 mph 1013.5mb 62f
8:00am 13 14 mph 1013.4mb 62f
7:00am 8
mph
1014mb 62f
6:00am 14 15 mph 1014.5mb 62f
5:00am 9 10 mph 1014.9mb 61f
4:00am 8 9 mph 1015.4mb 61f
3:00am 9
mph
1016.3mb 60f
2:00am 15
mph
1017mb 61f
1:00am 15 17 mph 1017.8mb 61f
12:00am 15 18 mph 1018.1mb 61f
Sat 09/20 11:00pm 18 20 mph 1018.7mb 62f
10:00pm 14 15 mph 1019.4mb 62f
9:00pm 21 22 mph 1019.7mb 63f
8:00pm 20 21 mph 1019.9mb 63f
7:00pm 23 24 mph 1019.6mb 63f
6:00pm 25 26 mph 1019.7mb 63f
5:00pm 25 26 mph 1020mb 63f
4:00pm 22 23 mph 1020.4mb 61f
3:00pm 23 25 mph 1021.5mb 60f
2:00pm 26 28 mph 1022mb 59f
1:00pm 23 24 mph 1023.3mb 59f
12:00pm 24 25 mph 1024.2mb 58f
11:00am 22 24 mph 1024.9mb 58f
10:00am 25 28 mph 1025.4mb 57f
9:00am 22 24 mph 1026.3mb 56f
8:00am 21 24 mph 1027mb 55f
7:00am 20 22 mph 1027.3mb 54f
6:00am 21 24 mph 1027.4mb 54f
5:00am 18 20 mph 1028.1mb 54f
4:00am 17 20 mph 1028mb 54f
3:00am 13 14 mph 1028.3mb 52f
2:00am 20 22 mph 1028.5mb 54f
1:00am 20 21 mph 1028.5mb 53f
12:00am 17 20 mph 1028.8mb 53f
Fri 09/19 11:00pm 15 16 mph 1029.5mb 52f
10:00pm 15 16 mph 1029.7mb 52f
9:00pm 14 15 mph 1029.9mb 52f
8:00pm 14 16 mph 1029.9mb 52f
7:00pm 11 13 mph 1029.3mb 52f
6:00pm 9 10 mph 1029.1mb 52f
5:00pm 9 10 mph 1029.1mb 51f
4:00pm 9 10 mph 1028.9mb 51f
3:00pm 8 9 mph 1029.3mb 50f
2:00pm 9 13 mph 1029.4mb 50f
1:00pm 10 15 mph 1029.3mb 50f
12:00pm 10 14 mph 1028.9mb 50f
11:00am 16 17 mph 1028.6mb 49f
10:00am 21 25 mph 1028.4mb 49f
9:00am 22 24 mph 1027.8mb 48f
8:00am 22 24 mph 1026.9mb 47f
7:00am 23 26 mph 1026.1mb 46f
6:00am 22 25 mph 1025.2mb 47f
5:00am 22 24 mph 1024.2mb 49f
4:00am 22 24 mph 1023.3mb 50f
3:00am 24 26 mph 1022.6mb 50f
2:00am 25 29 mph 1022mb 51f
1:00am 25 28 mph 1021mb 52f
12:00am 25 28 mph 1020.5mb 54f
Thu 09/18 11:00pm 22 24 mph 1019.7mb 55f
10:00pm 21 23 mph 1019mb 57f
9:00pm 26 30 mph 1018mb 59f
8:00pm 18 20 mph 1017mb 62f
7:00pm 20 22 mph 1015.6mb 64f
6:00pm 14 15 mph 1015mb 66f
5:00pm 13 15 mph 1014.2mb 66f
4:00pm 14 16 mph 1013.9mb 67f
3:00pm 9 11 mph 1013.6mb 67f
2:00pm 6 7 mph 1013.7mb 67f
1:00pm 9 11 mph 1013.9mb 66f
12:00pm 15 17 mph 1013.7mb 65f
11:00am 11 13 mph 1013.9mb 62f
10:00am 13 15 mph 1014mb 59f
9:00am 18
mph
1013.7mb 56f
8:00am 16 17 mph 1013.6mb 55f
7:00am 11 13 mph 1013.5mb 54f
6:00am 11 14 mph 1013mb 55f
5:00am 15
mph
1012.5mb 55f